Time;durP1;ratioP1;P1;durP2;ratioP2;P2;SDS_P1;SDS_P2;PMS_P1;PMS_P2;Temp;Humidity;BMP_temperature;BMP_pressure;BME280_temperature;BME280_humidity;BME280_pressure;Samples;Min_cycle;Max_cycle;Signal;HPM_P1;HPM_P2
2022/12/09 00:00:15;;;;;;;;;;;12.70;92.60;;;;;;5026319;28;20464;-67
2022/12/09 00:02:40;;;;;;;;;;;12.80;92.60;;;;;;5046821;28;19929;-67
2022/12/09 00:05:06;;;;;;;;;;;12.90;92.60;;;;;;5060694;28;19931;-67
2022/12/09 00:07:33;;;;;;;;;;;12.80;92.60;;;;;;5035666;28;19960;-67
2022/12/09 00:09:59;;;;;;;;;;;12.70;92.50;;;;;;5023281;28;19929;-67
2022/12/09 00:12:24;;;;;;;;;;;12.70;92.50;;;;;;5031899;28;19975;-67
2022/12/09 00:14:50;;;;;;;;;;;12.70;92.50;;;;;;5032886;28;19932;-67
2022/12/09 00:17:15;;;;;;;;;;;12.90;92.60;;;;;;5034968;28;19925;-67
2022/12/09 00:19:41;;;;;;;;;;;12.90;92.50;;;;;;5066482;28;19925;-66
2022/12/09 00:22:07;;;;;;;;;;;12.90;92.50;;;;;;5063404;28;19926;-67
2022/12/09 00:24:32;;;;;;;;;;;13.00;92.50;;;;;;5032590;28;19999;-67
2022/12/09 00:26:58;;;;;;;;;;;12.70;92.40;;;;;;5024847;28;20063;-67
2022/12/09 00:29:24;;;;;;;;;;;12.60;92.30;;;;;;5027070;28;19979;-67
2022/12/09 00:31:49;;;;;;;;;;;12.50;92.30;;;;;;5064110;28;19921;-67
2022/12/09 00:34:15;;;;;;;;;;;12.90;92.40;;;;;;5063863;28;20000;-65
2022/12/09 00:36:41;;;;;;;;;;;12.80;92.40;;;;;;5065354;28;19933;-65
2022/12/09 00:39:06;;;;;;;;;;;12.60;92.40;;;;;;5016485;28;20207;-65
2022/12/09 00:41:32;;;;;;;;;;;12.60;92.30;;;;;;5029723;28;19925;-67
2022/12/09 00:43:58;;;;;;;;;;;13.10;92.40;;;;;;5028403;28;20004;-67
2022/12/09 00:46:23;;;;;;;;;;;12.80;92.40;;;;;;5032928;28;20295;-67
2022/12/09 00:48:49;;;;;;;;;;;12.70;92.20;;;;;;5031061;28;19925;-67
2022/12/09 00:51:15;;;;;;;;;;;;;;;;;;5033472;28;19925;-65
2022/12/09 00:53:41;;;;;;;;;;;12.80;92.30;;;;;;5031479;28;19983;-65
2022/12/09 00:56:07;;;;;;;;;;;12.80;92.30;;;;;;5034210;28;19925;-65
2022/12/09 00:58:33;;;;;;;;;;;;;;;;;;5032741;28;19925;-65
2022/12/09 01:00:58;;;;;;;;;;;12.80;92.30;;;;;;5024510;28;19976;-65
2022/12/09 01:03:24;;;;;;;;;;;12.70;92.20;;;;;;5027363;28;19967;-65
2022/12/09 01:05:50;;;;;;;;;;;12.80;92.30;;;;;;5063792;28;19972;-65
2022/12/09 01:08:15;;;;;;;;;;;12.80;92.30;;;;;;5015590;28;19925;-65
2022/12/09 01:10:41;;;;;;;;;;;12.50;92.20;;;;;;5031523;28;20016;-65
2022/12/09 01:13:07;;;;;;;;;;;12.40;92.10;;;;;;5047526;28;19925;-65
2022/12/09 01:15:33;;;;;;;;;;;12.60;92.00;;;;;;5062359;28;19925;-65
2022/12/09 01:17:58;;;;;;;;;;;12.90;92.10;;;;;;5023216;28;19930;-65
2022/12/09 01:20:24;;;;;;;;;;;12.70;92.10;;;;;;5018952;28;19932;-65
2022/12/09 01:22:50;;;;;;;;;;;12.40;92.00;;;;;;5031577;28;19955;-65
2022/12/09 01:25:15;;;;;;;;;;;12.70;92.00;;;;;;5031389;28;19926;-65
2022/12/09 01:27:41;;;;;;;;;;;12.70;92.00;;;;;;5032671;28;20286;-65
2022/12/09 01:30:07;;;;;;;;;;;12.50;91.90;;;;;;5029575;28;19925;-65
2022/12/09 01:32:32;;;;;;;;;;;12.70;92.00;;;;;;5028366;28;20390;-65
2022/12/09 01:34:58;;;;;;;;;;;12.50;91.90;;;;;;5022794;28;19929;-65
2022/12/09 01:37:24;;;;;;;;;;;12.70;92.00;;;;;;5018550;28;20303;-65
2022/12/09 01:39:49;;;;;;;;;;;12.60;91.90;;;;;;5030866;28;19933;-65
2022/12/09 01:42:19;;;;;;;;;;;12.60;91.90;;;;;;5031572;28;19979;-65
2022/12/09 01:45:03;;;;;;;;;;;12.50;91.90;;;;;;5032200;28;19926;-65
2022/12/09 01:47:29;;;;;;;;;;;12.70;91.90;;;;;;5031243;28;20379;-65
2022/12/09 01:49:54;;;;;;;;;;;12.70;91.80;;;;;;5027588;28;19921;-65
2022/12/09 01:52:21;;;;;;;;;;;12.50;91.90;;;;;;5012092;28;19925;-65
2022/12/09 01:54:46;;;;;;;;;;;12.40;91.80;;;;;;5011829;28;19976;-65
2022/12/09 01:57:12;;;;;;;;;;;12.80;91.90;;;;;;5032182;28;20002;-65
2022/12/09 01:59:38;;;;;;;;;;;12.50;91.80;;;;;;5064361;28;20010;-65
2022/12/09 02:02:03;;;;;;;;;;;12.80;91.80;;;;;;5027528;28;20144;-65
2022/12/09 02:04:30;;;;;;;;;;;12.80;91.90;;;;;;5013298;28;20444;-65
2022/12/09 02:06:56;;;;;;;;;;;12.70;91.80;;;;;;5033655;28;19969;-64
2022/12/09 02:09:22;;;;;;;;;;;12.60;91.80;;;;;;5030625;28;20286;-65
2022/12/09 02:12:01;;;;;;;;;;;12.90;91.80;;;;;;5026854;28;19925;-65
2022/12/09 02:14:30;;;;;;;;;;;12.70;91.80;;;;;;5046981;28;20034;-65
2022/12/09 02:17:05;;;;;;;;;;;12.60;91.80;;;;;;5019453;28;19925;-65
2022/12/09 02:19:30;;;;;;;;;;;12.90;91.80;;;;;;5017880;28;20391;-66
2022/12/09 02:21:57;;;;;;;;;;;12.50;91.70;;;;;;5033444;28;19975;-65
2022/12/09 02:24:32;;;;;;;;;;;12.70;91.70;;;;;;5032975;28;19960;-65
2022/12/09 02:27:10;;;;;;;;;;;12.60;91.70;;;;;;5049683;28;19932;-65
2022/12/09 02:29:55;;;;;;;;;;;12.70;91.80;;;;;;5034349;28;19968;-67
2022/12/09 02:32:26;;;;;;;;;;;12.50;91.70;;;;;;5067530;28;19925;-67
2022/12/09 02:34:52;;;;;;;;;;;;;;;;;;5045756;28;20003;-68
2022/12/09 02:37:26;;;;;;;;;;;12.90;91.80;;;;;;5034657;28;19929;-68
2022/12/09 02:39:56;;;;;;;;;;;12.40;91.70;;;;;;5035678;28;20020;-67
2022/12/09 02:42:22;;;;;;;;;;;12.70;91.70;;;;;;5029463;28;19979;-67
2022/12/09 02:44:48;;;;;;;;;;;12.60;91.70;;;;;;5012737;28;19921;-67
2022/12/09 02:47:14;;;;;;;;;;;12.70;91.70;;;;;;5016768;28;19952;-67
2022/12/09 02:49:40;;;;;;;;;;;12.40;91.60;;;;;;5029985;28;19926;-65
2022/12/09 02:52:06;;;;;;;;;;;12.70;91.70;;;;;;5001717;28;19967;-66
2022/12/09 02:54:31;;;;;;;;;;;12.90;91.80;;;;;;5012153;28;20387;-66
2022/12/09 02:56:57;;;;;;;;;;;;;;;;;;5031920;28;20447;-66
2022/12/09 02:59:23;;;;;;;;;;;12.80;91.70;;;;;;5050171;28;19933;-65
2022/12/09 03:02:07;;;;;;;;;;;12.50;91.70;;;;;;5015376;28;19932;-65
2022/12/09 03:04:33;;;;;;;;;;;12.70;91.60;;;;;;5021664;28;19975;-65
2022/12/09 03:06:59;;;;;;;;;;;;;;;;;;5035211;28;19925;-67
2022/12/09 03:09:25;;;;;;;;;;;;;;;;;;5035257;28;19929;-66
2022/12/09 03:11:51;;;;;;;;;;;12.40;91.60;;;;;;5064807;28;20321;-65
2022/12/09 03:14:30;;;;;;;;;;;12.60;91.70;;;;;;5016814;28;19925;-66
2022/12/09 03:16:59;;;;;;;;;;;12.50;91.60;;;;;;5023521;28;19968;-65
2022/12/09 03:19:25;;;;;;;;;;;12.70;91.70;;;;;;4998636;28;19925;-65
2022/12/09 03:21:51;;;;;;;;;;;12.50;91.60;;;;;;5033296;28;20066;-65
2022/12/09 03:24:21;;;;;;;;;;;12.70;91.60;;;;;;5033975;28;19932;-66
2022/12/09 03:26:47;;;;;;;;;;;12.70;91.60;;;;;;5031855;28;19925;-65
2022/12/09 03:29:15;;;;;;;;;;;12.50;91.60;;;;;;5032262;28;19996;-65
2022/12/09 03:31:41;;;;;;;;;;;12.60;91.60;;;;;;5034475;28;20190;-65
2022/12/09 03:34:07;;;;;;;;;;;12.70;91.60;;;;;;5059188;28;19925;-65
2022/12/09 03:36:34;;;;;;;;;;;12.60;91.60;;;;;;5013130;28;20395;-65
2022/12/09 03:39:00;;;;;;;;;;;;;;;;;;5014398;28;19932;-67
2022/12/09 03:41:29;;;;;;;;;;;12.30;91.50;;;;;;5034289;28;19929;-65
2022/12/09 03:43:57;;;;;;;;;;;12.60;91.50;;;;;;5014491;28;19929;-67
2022/12/09 03:46:22;;;;;;;;;;;12.60;91.60;;;;;;5032388;28;19979;-67
2022/12/09 03:48:48;;;;;;;;;;;12.70;91.60;;;;;;5033814;28;20390;-67
2022/12/09 03:51:20;;;;;;;;;;;12.20;91.50;;;;;;5034338;28;19925;-68
2022/12/09 03:53:46;;;;;;;;;;;12.40;91.50;;;;;;5032846;28;20421;-67
2022/12/09 03:56:20;;;;;;;;;;;12.30;91.50;;;;;;5035013;28;19925;-67
2022/12/09 03:58:46;;;;;;;;;;;;;;;;;;5064112;28;20294;-65
2022/12/09 04:01:11;;;;;;;;;;;12.50;91.50;;;;;;5066173;28;19925;-65
2022/12/09 04:03:37;;;;;;;;;;;12.70;91.50;;;;;;5033008;28;19925;-65
2022/12/09 04:06:03;;;;;;;;;;;12.60;91.50;;;;;;5031939;28;19952;-65
2022/12/09 04:08:29;;;;;;;;;;;;;;;;;;5035322;28;19930;-65
2022/12/09 04:10:54;;;;;;;;;;;12.50;91.40;;;;;;5028918;28;20387;-65
2022/12/09 04:13:20;;;;;;;;;;;12.30;91.30;;;;;;5028963;28;19924;-65
2022/12/09 04:15:45;;;;;;;;;;;12.20;91.30;;;;;;5033442;28;19929;-65
2022/12/09 04:18:11;;;;;;;;;;;12.60;91.40;;;;;;5048281;28;19948;-66
2022/12/09 04:20:37;;;;;;;;;;;12.50;91.30;;;;;;5065001;28;19971;-65
2022/12/09 04:23:02;;;;;;;;;;;12.60;91.30;;;;;;5031712;28;20398;-65
2022/12/09 04:25:28;;;;;;;;;;;12.30;91.30;;;;;;5019543;28;19936;-65
2022/12/09 04:27:53;;;;;;;;;;;12.50;91.30;;;;;;5019746;28;20264;-65
2022/12/09 04:30:19;;;;;;;;;;;12.40;91.20;;;;;;5028170;28;20294;-65
2022/12/09 04:32:45;;;;;;;;;;;;;;;;;;5033184;28;20379;-65
2022/12/09 04:35:11;;;;;;;;;;;12.40;91.10;;;;;;5030571;28;19925;-65
2022/12/09 04:37:36;;;;;;;;;;;12.20;91.10;;;;;;5031371;28;19925;-65
2022/12/09 04:40:05;;;;;;;;;;;12.30;91.10;;;;;;5034369;28;19972;-65
2022/12/09 04:42:31;;;;;;;;;;;;;;;;;;5027058;28;19964;-66
2022/12/09 04:44:57;;;;;;;;;;;12.20;91.10;;;;;;5032011;28;19975;-65
2022/12/09 04:47:22;;;;;;;;;;;12.30;91.10;;;;;;4998378;28;19967;-65
2022/12/09 04:49:48;;;;;;;;;;;12.30;91.10;;;;;;5032406;28;20405;-65
2022/12/09 04:52:15;;;;;;;;;;;12.40;91.10;;;;;;5031907;28;19932;-65
2022/12/09 04:54:41;;;;;;;;;;;12.40;91.10;;;;;;5031276;28;19925;-65
2022/12/09 04:57:07;;;;;;;;;;;12.30;91.10;;;;;;5032717;28;20013;-66
2022/12/09 04:59:32;;;;;;;;;;;12.30;91.10;;;;;;5024839;28;19979;-66
2022/12/09 05:01:58;;;;;;;;;;;12.30;91.10;;;;;;5032897;28;19929;-65
2022/12/09 05:04:24;;;;;;;;;;;12.30;91.10;;;;;;5063349;28;19925;-65
2022/12/09 05:06:49;;;;;;;;;;;12.30;91.20;;;;;;5034167;28;19925;-65
2022/12/09 05:09:15;;;;;;;;;;;12.20;91.10;;;;;;5064928;28;19999;-65
2022/12/09 05:11:41;;;;;;;;;;;12.40;90.80;;;;;;5015580;28;19948;-65
2022/12/09 05:14:07;;;;;;;;;;;;;;;;;;5030483;28;19929;-65
2022/12/09 05:16:32;;;;;;;;;;;12.30;91.10;;;;;;5018456;28;19925;-65
2022/12/09 05:18:58;;;;;;;;;;;12.50;91.20;;;;;;5024171;28;20335;-65
2022/12/09 05:21:24;;;;;;;;;;;12.10;91.10;;;;;;5063576;28;19925;-65
2022/12/09 05:23:49;;;;;;;;;;;12.20;91.10;;;;;;5030783;28;19933;-65
2022/12/09 05:26:16;;;;;;;;;;;12.10;91.10;;;;;;5033593;28;20016;-65
2022/12/09 05:28:42;;;;;;;;;;;12.10;91.00;;;;;;5026093;28;20407;-65
2022/12/09 05:31:13;;;;;;;;;;;12.30;91.10;;;;;;5064552;28;20004;-65
2022/12/09 05:33:39;;;;;;;;;;;12.10;91.10;;;;;;5047984;28;19971;-65
2022/12/09 05:36:09;;;;;;;;;;;12.20;91.10;;;;;;5030009;28;20394;-65
2022/12/09 05:38:34;;;;;;;;;;;12.20;91.10;;;;;;5011176;28;20322;-65
2022/12/09 05:41:00;;;;;;;;;;;12.10;91.10;;;;;;5030709;28;19979;-65
2022/12/09 05:43:26;;;;;;;;;;;;;;;;;;5043852;28;19925;-65
2022/12/09 05:45:52;;;;;;;;;;;;;;;;;;5019372;28;20016;-65
2022/12/09 05:48:18;;;;;;;;;;;;;;;;;;5061797;28;20063;-65
2022/12/09 05:50:44;;;;;;;;;;;12.20;91.10;;;;;;5051971;28;19921;-65
2022/12/09 05:53:09;;;;;;;;;;;12.20;91.00;;;;;;5065257;28;19971;-65
2022/12/09 05:55:38;;;;;;;;;;;12.20;91.10;;;;;;5036080;28;19925;-65
2022/12/09 05:58:04;;;;;;;;;;;12.20;91.10;;;;;;5034291;28;19987;-65
2022/12/09 06:00:30;;;;;;;;;;;12.00;91.00;;;;;;5034898;28;19972;-65
2022/12/09 06:02:55;;;;;;;;;;;12.00;91.00;;;;;;5037419;28;19925;-65
2022/12/09 06:05:21;;;;;;;;;;;12.20;91.10;;;;;;5036110;28;19948;-65
2022/12/09 06:07:46;;;;;;;;;;;12.10;90.80;;;;;;5018496;28;19933;-65
2022/12/09 06:10:12;;;;;;;;;;;12.10;91.00;;;;;;5028932;28;20037;-65
2022/12/09 06:12:38;;;;;;;;;;;;;;;;;;5068058;28;20040;-65
2022/12/09 06:15:04;;;;;;;;;;;12.20;91.00;;;;;;5037488;28;19932;-65
2022/12/09 06:17:30;;;;;;;;;;;12.00;91.10;;;;;;5034580;28;19932;-65
2022/12/09 06:19:55;;;;;;;;;;;11.90;91.00;;;;;;5035586;28;20033;-65
2022/12/09 06:22:21;;;;;;;;;;;12.00;91.10;;;;;;5033685;28;19996;-65
2022/12/09 06:24:46;;;;;;;;;;;12.00;91.00;;;;;;5023289;28;19925;-65
2022/12/09 06:27:12;;;;;;;;;;;;;;;;;;5035321;28;19932;-65
2022/12/09 06:29:38;;;;;;;;;;;12.10;91.00;;;;;;5035430;28;19983;-65
2022/12/09 06:32:04;;;;;;;;;;;;;;;;;;5028817;28;20290;-68
2022/12/09 06:34:30;;;;;;;;;;;12.00;91.00;;;;;;5034975;28;20015;-67
2022/12/09 06:36:56;;;;;;;;;;;;;;;;;;5068594;28;20016;-67
2022/12/09 06:39:21;;;;;;;;;;;12.10;91.00;;;;;;5065651;28;19948;-65
2022/12/09 06:41:47;;;;;;;;;;;12.20;91.00;;;;;;5023063;28;20430;-67
2022/12/09 06:44:13;;;;;;;;;;;12.20;91.10;;;;;;5068050;28;20447;-67
2022/12/09 06:46:38;;;;;;;;;;;11.90;91.00;;;;;;5018039;28;19933;-67
2022/12/09 06:49:04;;;;;;;;;;;12.00;91.00;;;;;;5017262;28;20004;-65
2022/12/09 06:51:30;;;;;;;;;;;;;;;;;;5014291;28;19925;-65
2022/12/09 06:53:56;;;;;;;;;;;;;;;;;;5064888;28;19925;-64
2022/12/09 06:56:22;;;;;;;;;;;11.90;90.90;;;;;;5066102;28;19925;-64
2022/12/09 06:58:47;;;;;;;;;;;12.00;90.90;;;;;;5025221;28;19929;-64
2022/12/09 07:01:13;;;;;;;;;;;;;;;;;;5034744;28;19925;-65
2022/12/09 07:03:39;;;;;;;;;;;12.20;90.90;;;;;;5033531;28;20444;-64
2022/12/09 07:06:06;;;;;;;;;;;12.20;90.90;;;;;;5065716;28;19995;-65
2022/12/09 07:08:32;;;;;;;;;;;;;;;;;;5036815;28;20289;-65
2022/12/09 07:10:57;;;;;;;;;;;12.40;90.90;;;;;;5034835;28;20078;-65
2022/12/09 07:13:23;;;;;;;;;;;12.20;90.90;;;;;;5067245;28;19932;-64
2022/12/09 07:15:49;;;;;;;;;;;12.20;90.80;;;;;;5053105;28;19996;-64
2022/12/09 07:18:14;;;;;;;;;;;12.30;90.90;;;;;;5035406;28;19967;-65
2022/12/09 07:20:40;;;;;;;;;;;12.50;90.90;;;;;;5035004;28;19925;-64
2022/12/09 07:23:06;;;;;;;;;;;12.10;90.80;;;;;;5035958;28;19948;-64
2022/12/09 07:25:31;;;;;;;;;;;;;;;;;;5034009;28;19957;-67
2022/12/09 07:27:57;;;;;;;;;;;12.20;90.60;;;;;;5032690;28;20386;-65
2022/12/09 07:30:23;;;;;;;;;;;12.30;90.60;;;;;;5031015;28;19929;-71
2022/12/09 07:32:48;;;;;;;;;;;12.00;90.60;;;;;;5016270;28;19971;-67
2022/12/09 07:35:14;;;;;;;;;;;12.50;90.60;;;;;;5017058;28;19986;-68
2022/12/09 07:37:40;;;;;;;;;;;12.20;90.60;;;;;;5065531;28;19925;-67
2022/12/09 07:40:06;;;;;;;;;;;12.30;90.60;;;;;;5035546;28;19979;-66
2022/12/09 07:42:31;;;;;;;;;;;12.10;90.60;;;;;;5031863;28;19978;-65
2022/12/09 07:44:57;;;;;;;;;;;12.20;90.50;;;;;;5017572;28;19925;-65
2022/12/09 07:47:23;;;;;;;;;;;;;;;;;;5032072;28;19925;-65
2022/12/09 07:49:49;;;;;;;;;;;;;;;;;;5028920;28;19979;-65
2022/12/09 07:52:14;;;;;;;;;;;12.10;90.60;;;;;;5030565;28;20283;-66
2022/12/09 07:54:40;;;;;;;;;;;12.20;90.70;;;;;;5017212;28;19925;-65
2022/12/09 07:57:06;;;;;;;;;;;12.20;90.70;;;;;;5032965;28;19979;-67
2022/12/09 07:59:31;;;;;;;;;;;12.20;90.70;;;;;;5035102;28;20030;-67
2022/12/09 08:01:57;;;;;;;;;;;12.20;90.70;;;;;;5066960;28;20038;-65
2022/12/09 08:04:23;;;;;;;;;;;12.10;90.70;;;;;;5034047;28;19929;-65
2022/12/09 08:06:49;;;;;;;;;;;;;;;;;;5032924;28;20283;-65
2022/12/09 08:09:14;;;;;;;;;;;12.20;90.70;;;;;;5032150;28;19925;-65
2022/12/09 08:11:40;;;;;;;;;;;12.50;90.70;;;;;;5035247;28;19925;-65
2022/12/09 08:14:06;;;;;;;;;;;11.90;90.60;;;;;;5034140;28;20367;-65
2022/12/09 08:16:32;;;;;;;;;;;12.10;90.60;;;;;;5034884;28;19979;-65
2022/12/09 08:18:57;;;;;;;;;;;11.90;90.50;;;;;;5033470;28;19929;-65
2022/12/09 08:21:27;;;;;;;;;;;12.00;90.50;;;;;;5034107;28;19972;-65
2022/12/09 08:23:53;;;;;;;;;;;;;;;;;;5016098;28;19925;-65
2022/12/09 08:26:20;;;;;;;;;;;12.20;90.50;;;;;;5032838;28;20008;-65
2022/12/09 08:28:46;;;;;;;;;;;;;;;;;;5015564;28;19932;-67
2022/12/09 08:31:12;;;;;;;;;;;;;;;;;;5033169;28;20000;-67
2022/12/09 08:33:37;;;;;;;;;;;12.00;90.50;;;;;;5034845;28;19968;-68
2022/12/09 08:36:03;;;;;;;;;;;12.20;90.50;;;;;;5032148;28;20056;-65
2022/12/09 08:38:30;;;;;;;;;;;;;;;;;;5048352;28;19983;-65
2022/12/09 08:40:57;;;;;;;;;;;12.20;90.50;;;;;;5014349;28;19925;-66
2022/12/09 08:43:22;;;;;;;;;;;12.20;90.50;;;;;;5014422;28;20083;-65
2022/12/09 08:45:48;;;;;;;;;;;11.80;90.40;;;;;;5014729;28;20012;-65
2022/12/09 08:48:14;;;;;;;;;;;12.30;90.50;;;;;;5013165;28;19989;-65
2022/12/09 08:50:39;;;;;;;;;;;12.40;90.50;;;;;;5011052;28;19925;-67
2022/12/09 08:53:05;;;;;;;;;;;12.50;90.60;;;;;;5034408;28;20003;-67
2022/12/09 08:55:30;;;;;;;;;;;12.10;90.50;;;;;;5066004;28;19925;-66
2022/12/09 08:57:56;;;;;;;;;;;12.10;90.50;;;;;;5016103;28;19925;-65
2022/12/09 09:00:22;;;;;;;;;;;;;;;;;;5047491;28;19925;-66
2022/12/09 09:02:48;;;;;;;;;;;;;;;;;;5032653;28;19937;-66
2022/12/09 09:05:14;;;;;;;;;;;12.40;90.50;;;;;;5032654;28;20391;-65
2022/12/09 09:07:39;;;;;;;;;;;12.40;90.60;;;;;;5032569;28;19991;-66
2022/12/09 09:10:06;;;;;;;;;;;12.20;90.40;;;;;;5015128;28;19975;-66
2022/12/09 09:12:32;;;;;;;;;;;;;;;;;;5065780;28;19932;-66
2022/12/09 09:14:57;;;;;;;;;;;12.20;90.10;;;;;;4997294;28;20093;-66
2022/12/09 09:17:23;;;;;;;;;;;;;;;;;;5028615;28;19925;-66
2022/12/09 09:19:49;;;;;;;;;;;;;;;;;;5030229;28;20449;-66
2022/12/09 09:22:15;;;;;;;;;;;12.00;90.40;;;;;;5032534;28;19951;-66
2022/12/09 09:24:41;;;;;;;;;;;12.50;90.50;;;;;;5019838;28;20019;-66
2022/12/09 09:27:06;;;;;;;;;;;12.20;90.40;;;;;;5022510;28;20012;-65
2022/12/09 09:29:32;;;;;;;;;;;12.20;90.50;;;;;;5071175;28;19925;-65
2022/12/09 09:31:58;;;;;;;;;;;12.30;90.50;;;;;;5052781;28;20330;-66
2022/12/09 09:34:24;;;;;;;;;;;12.20;90.50;;;;;;5019222;28;19921;-66
2022/12/09 09:36:50;;;;;;;;;;;12.20;90.50;;;;;;5020676;28;20319;-66
2022/12/09 09:39:16;;;;;;;;;;;12.10;90.20;;;;;;5040382;28;19979;-66
2022/12/09 09:41:59;;;;;;;;;;;12.30;90.50;;;;;;5022421;28;19971;-66
2022/12/09 09:44:43;;;;;;;;;;;12.50;90.50;;;;;;5054629;28;19933;-65
2022/12/09 09:47:18;;;;;;;;;;;12.30;90.50;;;;;;5022056;28;19931;-67
2022/12/09 09:49:49;;;;;;;;;;;12.50;90.50;;;;;;5070793;28;19925;-67
2022/12/09 09:52:22;;;;;;;;;;;12.50;90.50;;;;;;5022592;28;19925;-67
2022/12/09 09:54:48;;;;;;;;;;;12.10;90.40;;;;;;5022290;28;19983;-68
2022/12/09 09:57:15;;;;;;;;;;;12.20;90.40;;;;;;5071696;28;19980;-68
2022/12/09 09:59:43;;;;;;;;;;;12.30;90.40;;;;;;5048561;28;20066;-67
2022/12/09 10:02:12;;;;;;;;;;;12.50;90.40;;;;;;5072097;28;20302;-66
2022/12/09 10:04:38;;;;;;;;;;;;;;;;;;5064254;28;20047;-67
2022/12/09 10:07:30;;;;;;;;;;;12.50;90.50;;;;;;5020400;28;20319;-66
2022/12/09 10:10:04;;;;;;;;;;;12.10;90.40;;;;;;5070677;28;19924;-66
2022/12/09 10:12:33;;;;;;;;;;;12.60;90.50;;;;;;5044350;28;20429;-66
2022/12/09 10:14:59;;;;;;;;;;;;;;;;;;5057847;28;19966;-66
2022/12/09 10:17:26;;;;;;;;;;;12.70;90.50;;;;;;5059247;28;19928;-66
2022/12/09 10:19:53;;;;;;;;;;;12.60;90.50;;;;;;5061867;28;20278;-66
2022/12/09 10:22:20;;;;;;;;;;;12.80;90.50;;;;;;5046116;28;20390;-66
2022/12/09 10:24:46;;;;;;;;;;;;;;;;;;5076165;28;20401;-65
2022/12/09 10:27:30;;;;;;;;;;;12.70;90.50;;;;;;5077571;28;20525;-66
2022/12/09 10:30:02;;;;;;;;;;;13.10;90.50;;;;;;5077651;28;19980;-66
2022/12/09 10:32:28;;;;;;;;;;;12.90;90.60;;;;;;5073455;28;20373;-65
2022/12/09 10:34:54;;;;;;;;;;;13.00;90.70;;;;;;5055879;28;19982;-65
2022/12/09 10:37:27;;;;;;;;;;;12.80;90.60;;;;;;5073652;28;19956;-65
2022/12/09 10:39:54;;;;;;;;;;;;;;;;;;5048507;28;20020;-66
2022/12/09 10:45:04;;;;;;;;;;;13.20;90.70;;;;;;5023429;28;19975;-66
2022/12/09 10:47:30;;;;;;;;;;;;;;;;;;5033797;28;19925;-66
2022/12/09 10:49:58;;;;;;;;;;;;;;;;;;5016852;28;19925;-66
2022/12/09 10:52:24;;;;;;;;;;;13.20;90.70;;;;;;5034222;28;19925;-66
2022/12/09 10:54:50;;;;;;;;;;;13.50;90.70;;;;;;5033048;28;19979;-65
2022/12/09 10:57:16;;;;;;;;;;;;;;;;;;4998164;28;19925;-68
2022/12/09 10:59:42;;;;;;;;;;;;;;;;;;5026528;28;19968;-67
2022/12/09 11:02:08;;;;;;;;;;;13.50;90.60;;;;;;5060539;28;20007;-68
2022/12/09 11:04:37;;;;;;;;;;;13.40;90.60;;;;;;5062751;28;19925;-70
2022/12/09 11:07:13;;;;;;;;;;;13.70;90.70;;;;;;5017830;28;19952;-69
2022/12/09 11:09:38;;;;;;;;;;;13.60;90.20;;;;;;5034456;28;19932;-69
2022/12/09 11:12:05;;;;;;;;;;;13.80;90.00;;;;;;5030478;28;19926;-69
2022/12/09 11:14:34;;;;;;;;;;;13.60;89.30;;;;;;5033151;28;20404;-70
2022/12/09 11:17:00;;;;;;;;;;;;;;;;;;5034283;28;19921;-67
2022/12/09 11:19:33;;;;;;;;;;;13.70;88.50;;;;;;5067594;28;19983;-66
2022/12/09 11:22:17;;;;;;;;;;;13.40;88.30;;;;;;5027044;28;19925;-66
2022/12/09 11:24:43;;;;;;;;;;;;;;;;;;5030494;28;19925;-66
2022/12/09 11:27:29;;;;;;;;;;;13.30;88.40;;;;;;5035502;28;19971;-66
2022/12/09 11:30:14;;;;;;;;;;;13.10;88.00;;;;;;5024697;28;19925;-66
2022/12/09 11:32:49;;;;;;;;;;;12.80;87.60;;;;;;5014704;28;19929;-66
2022/12/09 11:35:16;;;;;;;;;;;12.60;87.70;;;;;;5014445;28;19949;-65
2022/12/09 11:37:41;;;;;;;;;;;12.50;88.00;;;;;;5014754;28;19932;-65
2022/12/09 11:40:11;;;;;;;;;;;12.40;88.00;;;;;;5015742;28;19934;-67
2022/12/09 11:42:37;;;;;;;;;;;12.00;88.20;;;;;;5014324;28;19929;-65
2022/12/09 11:45:05;;;;;;;;;;;12.20;88.50;;;;;;5014671;28;20012;-65
2022/12/09 11:47:31;;;;;;;;;;;12.20;88.80;;;;;;5014621;28;19925;-66
2022/12/09 11:50:17;;;;;;;;;;;12.10;89.00;;;;;;5031037;28;19929;-65
2022/12/09 11:52:43;;;;;;;;;;;11.60;89.00;;;;;;5013785;28;19933;-65
2022/12/09 11:55:27;;;;;;;;;;;11.90;89.10;;;;;;5014164;28;19926;-66
2022/12/09 11:57:57;;;;;;;;;;;11.70;88.50;;;;;;5018482;28;20390;-65
2022/12/09 12:00:24;;;;;;;;;;;12.10;88.60;;;;;;5050393;28;19931;-66
2022/12/09 12:02:49;;;;;;;;;;;11.90;88.50;;;;;;5032672;28;19977;-65
2022/12/09 12:05:22;;;;;;;;;;;11.70;88.90;;;;;;5066875;28;20022;-65
2022/12/09 12:07:50;;;;;;;;;;;11.70;88.70;;;;;;5066859;28;19968;-65
2022/12/09 12:10:21;;;;;;;;;;;11.70;89.00;;;;;;5035326;28;19925;-65
2022/12/09 12:13:05;;;;;;;;;;;11.60;88.60;;;;;;5033840;28;20037;-66
2022/12/09 12:15:31;;;;;;;;;;;;;;;;;;5030448;28;19926;-65
2022/12/09 12:17:57;;;;;;;;;;;11.40;88.40;;;;;;5013963;28;19932;-65
2022/12/09 12:20:35;;;;;;;;;;;11.50;88.40;;;;;;5035853;28;20311;-66
2022/12/09 12:23:05;;;;;;;;;;;11.40;88.50;;;;;;5033355;28;19925;-65
2022/12/09 12:25:33;;;;;;;;;;;11.10;88.70;;;;;;5066896;28;19925;-65
2022/12/09 12:28:18;;;;;;;;;;;11.10;88.90;;;;;;5066744;28;20000;-66
2022/12/09 12:31:19;;;;;;;;;;;11.10;89.10;;;;;;5035018;28;19932;-65
2022/12/09 12:33:53;;;;;;;;;;;11.20;89.10;;;;;;5052190;28;20441;-65
2022/12/09 12:36:19;;;;;;;;;;;;;;;;;;5035303;28;19925;-65
2022/12/09 12:38:45;;;;;;;;;;;11.00;89.30;;;;;;5052010;28;19925;-65
2022/12/09 12:41:28;;;;;;;;;;;11.00;88.90;;;;;;5035259;28;20023;-65
2022/12/09 12:47:02;;;;;;;;;;;11.10;88.90;;;;;;5068616;28;19925;-65
2022/12/09 12:49:30;;;;;;;;;;;10.90;88.80;;;;;;5035496;28;20511;-65
2022/12/09 12:52:02;;;;;;;;;;;11.00;89.10;;;;;;5035617;28;20012;-65
2022/12/09 12:54:42;;;;;;;;;;;10.70;89.30;;;;;;5018850;28;19967;-65
2022/12/09 12:57:14;;;;;;;;;;;10.90;89.60;;;;;;5035526;28;19925;-65
2022/12/09 12:59:43;;;;;;;;;;;11.00;89.60;;;;;;5034249;28;19963;-65
2022/12/09 13:02:14;;;;;;;;;;;10.90;89.60;;;;;;5068448;28;20020;-65
2022/12/09 13:04:42;;;;;;;;;;;10.70;89.30;;;;;;5068362;28;20377;-65
2022/12/09 13:07:27;;;;;;;;;;;11.00;89.50;;;;;;5065446;28;19925;-66
2022/12/09 13:09:53;;;;;;;;;;;;;;;;;;5030363;28;20040;-67
2022/12/09 13:12:52;;;;;;;;;;;10.70;89.80;;;;;;5061720;28;19980;-69
2022/12/09 13:15:09;;;;;;;;;;;11.00;90.10;;;;;;5032603;28;19929;-66
2022/12/09 13:17:35;;;;;;;;;;;11.00;90.00;;;;;;5016140;28;19933;-66
2022/12/09 13:20:00;;;;;;;;;;;11.30;89.60;;;;;;5032394;28;19925;-68
2022/12/09 13:22:32;;;;;;;;;;;11.40;89.90;;;;;;5065797;28;19925;-67
2022/12/09 13:25:17;;;;;;;;;;;11.70;89.70;;;;;;5016624;28;20298;-66
2022/12/09 13:27:43;;;;;;;;;;;;;;;;;;5033467;28;19964;-66
2022/12/09 13:30:11;;;;;;;;;;;12.00;89.50;;;;;;5014011;28;20418;-68
2022/12/09 13:32:48;;;;;;;;;;;12.00;89.30;;;;;;5011547;28;20374;-66
2022/12/09 13:35:14;;;;;;;;;;;;;;;;;;5013646;28;19925;-66
2022/12/09 13:37:40;;;;;;;;;;;11.90;89.00;;;;;;5045965;28;19993;-66
2022/12/09 13:40:18;;;;;;;;;;;12.10;89.00;;;;;;5012681;28;20383;-66
2022/12/09 13:42:55;;;;;;;;;;;12.20;89.00;;;;;;5012590;28;19930;-66
2022/12/09 13:45:20;;;;;;;;;;;12.10;88.90;;;;;;5013325;28;19922;-66
2022/12/09 13:47:46;;;;;;;;;;;12.20;88.70;;;;;;5023123;28;19955;-66
2022/12/09 13:50:12;;;;;;;;;;;;;;;;;;5031150;28;19928;-65
2022/12/09 13:52:39;;;;;;;;;;;12.20;88.80;;;;;;5033707;28;20302;-67
2022/12/09 13:55:15;;;;;;;;;;;12.40;88.90;;;;;;5032502;28;20297;-65
2022/12/09 13:57:43;;;;;;;;;;;12.20;88.60;;;;;;5014975;28;19925;-64
2022/12/09 14:00:13;;;;;;;;;;;12.20;88.70;;;;;;5031924;28;20282;-65
2022/12/09 14:02:49;;;;;;;;;;;12.10;88.70;;;;;;5029014;28;20264;-65
2022/12/09 14:05:17;;;;;;;;;;;12.20;88.70;;;;;;5013911;28;19972;-64
2022/12/09 14:07:47;;;;;;;;;;;12.20;88.80;;;;;;5016998;28;19925;-64
2022/12/09 14:10:31;;;;;;;;;;;12.10;88.80;;;;;;5063788;28;19925;-68
2022/12/09 14:12:57;;;;;;;;;;;12.30;88.90;;;;;;5037318;28;19972;-65
2022/12/09 14:15:22;;;;;;;;;;;12.20;89.00;;;;;;5036551;28;19979;-65
2022/12/09 14:17:48;;;;;;;;;;;12.20;89.00;;;;;;5035635;28;19932;-66
2022/12/09 14:20:21;;;;;;;;;;;12.40;89.10;;;;;;5024093;28;19932;-65
2022/12/09 14:23:05;;;;;;;;;;;12.10;89.00;;;;;;5016702;28;19929;-65
2022/12/09 14:25:32;;;;;;;;;;;12.20;89.00;;;;;;5019512;28;19971;-66
2022/12/09 14:28:10;;;;;;;;;;;12.20;88.80;;;;;;5064896;28;19925;-65
2022/12/09 14:30:57;;;;;;;;;;;12.10;88.80;;;;;;5030957;28;19990;-65
2022/12/09 14:33:35;;;;;;;;;;;12.40;89.20;;;;;;5019377;28;20351;-66
2022/12/09 14:36:04;;;;;;;;;;;12.10;89.10;;;;;;5018108;28;20508;-65
2022/12/09 14:38:50;;;;;;;;;;;12.30;89.30;;;;;;5068617;28;19925;-66
2022/12/09 14:41:22;;;;;;;;;;;12.10;89.20;;;;;;5018699;28;19925;-66
2022/12/09 14:43:50;;;;;;;;;;;12.10;88.80;;;;;;5036517;28;19936;-65
2022/12/09 14:46:21;;;;;;;;;;;12.00;89.30;;;;;;5052088;28;19921;-65